Latest Weather Observations for Yamba

IDN60801

Issued at 6:32 am EST Friday 23 June 2017 (issued every 30 minutes, with the page automatically refreshed every 10 minutes)

About weather observations | Map of weather stations | Latest weather observations for NSW | Other Formats
Station Details ID: 058012 Name: YAMBA PILOT STATION Lat: -29.43 Lon: 153.36 Height: 27.4 m
Data from the previous 72 hours. | See also: Recent months at Yamba
Date/Time
EST
Temp
°C
App
Temp
°C
Dew
Point
°C
Rel
Hum
%
Delta-T
°C
Wind Press
QNH
hPa
Press
MSL
hPa
Rain since
9am
mm
Dir  Spd
km/h
Gust
km/h
Spd
kts
Gust
kts
23/06:30am 11.2 9.7 10.7 97 0.3 WSW 9 15 5 8 1022.1 1022.1 0.0
23/06:00am 11.4 10.0 10.9 97 0.3 SW 9 17 5 9 1022.1 1022.1 0.0
23/05:30am 11.3 9.5 10.8 97 0.3 WSW 11 19 6 10 1021.9 1021.9 0.0
23/05:00am 11.5 9.7 11.0 97 0.3 WSW 11 13 6 7 1021.5 1021.4 0.0
23/04:30am 11.7 10.4 11.2 97 0.3 WSW 9 15 5 8 1021.6 1021.6 0.0
23/04:00am 11.9 10.6 11.3 96 0.3 SW 9 15 5 8 1021.7 1021.7 0.0
23/03:30am 11.9 9.9 11.4 97 0.3 SW 13 20 7 11 1021.9 1021.9 0.0
23/03:00am 12.1 10.9 11.6 97 0.3 SW 9 15 5 8 1022.0 1022.0 0.0
23/02:30am 12.3 10.8 11.8 97 0.3 WSW 11 17 6 9 1022.2 1022.2 0.0
23/02:00am 12.5 11.4 12.0 97 0.3 WSW 9 15 5 8 1022.4 1022.4 0.0
23/01:30am 12.7 11.7 12.2 97 0.3 WSW 9 15 5 8 1022.5 1022.5 0.0
23/01:00am 13.1 12.2 12.6 97 0.3 WSW 9 15 5 8 1022.8 1022.8 0.0
23/12:30am 13.3 12.5 13.0 98 0.2 WSW 9 17 5 9 1023.0 1023.0 0.0
23/12:00am 13.6 12.9 13.1 97 0.3 WSW 9 13 5 7 1023.2 1023.2 0.0
 
Date/Time
EST
Temp
°C
App
Temp
°C
Dew
Point
°C
Rel
Hum
%
Delta-T
°C
Wind Press
QNH
hPa
Press
MSL
hPa
Rain since
9am
mm
Dir  Spd
km/h
Gust
km/h
Spd
kts
Gust
kts
22/11:30pm 14.1 13.1 13.5 96 0.3 WSW 11 13 6 7 1023.5 1023.5 0.0
22/11:00pm 14.6 14.3 13.3 92 0.7 SW 7 13 4 7 1023.6 1023.6 0.0
22/10:30pm 15.0 14.3 13.2 89 1.0 W 9 11 5 6 1023.8 1023.8 0.0
22/10:00pm 16.6 15.7 13.7 83 1.6 S 11 15 6 8 1023.9 1023.9 0.0
22/09:30pm 16.4 15.6 13.9 85 1.4 S 11 13 6 7 1024.1 1024.1 0.0
22/09:00pm 16.8 16.0 13.9 83 1.6 S 11 15 6 8 1024.3 1024.3 0.0
22/08:30pm 18.1 16.6 14.2 78 2.2 SSE 15 24 8 13 1024.4 1024.4 0.0
22/08:00pm 18.2 16.5 13.7 75 2.6 SSE 15 24 8 13 1024.4 1024.4 0.0
22/07:30pm 17.8 16.3 14.3 80 2.0 SSE 15 20 8 11 1024.2 1024.2 0.0
22/07:00pm 16.8 15.1 12.5 76 2.4 S 13 15 7 8 1024.1 1024.1 0.0
22/06:30pm 16.8 15.4 12.1 74 2.6 S 11 17 6 9 1024.0 1024.0 0.0
22/06:00pm 17.5 16.1 12.2 71 2.9 S 11 17 6 9 1024.0 1024.0 0.0
22/05:30pm 18.6 15.9 11.7 64 3.8 SSE 17 22 9 12 1023.7 1023.7 0.0
22/05:00pm 18.6 15.9 11.7 64 3.8 SSE 17 26 9 14 1023.4 1023.4 0.0
22/04:30pm 18.7 16.1 12.0 65 3.7 SSE 17 24 9 13 1023.2 1023.2 0.0
22/04:00pm 19.0 16.4 12.0 64 3.9 SSE 17 24 9 13 1023.3 1023.3 0.0
22/03:30pm 19.5 17.4 12.3 63 4.0 SSE 15 22 8 12 1023.1 1023.1 0.0
22/03:00pm 19.9 17.7 12.2 61 4.3 SSE 15 24 8 13 1023.0 1023.0 0.0
22/02:30pm 19.8 17.7 12.3 62 4.2 SSE 15 20 8 11 1023.0 1023.0 0.0
22/02:00pm 20.0 17.9 12.3 61 4.3 SSE 15 24 8 13 1023.3 1023.3 0.0
22/01:30pm 20.4 18.2 13.4 64 4.0 SE 17 20 9 11 1023.3 1023.3 0.0
22/01:00pm 20.8 19.7 12.0 57 4.9 SW 9 15 5 8 1023.7 1023.7 0.0
22/12:30pm 20.2 18.6 11.7 58 4.7 SSW 11 20 6 11 1024.2 1024.2 0.0
22/12:00pm 19.9 18.7 12.7 63 4.0 SW 11 17 6 9 1024.6 1024.6 0.0
22/11:30am 19.9 19.5 12.9 64 4.0 SW 7 13 4 7 1025.1 1025.1 0.0
22/11:00am 18.9 17.8 11.9 64 3.9 SW 9 17 5 9 1025.5 1025.5 0.0
22/10:30am 18.4 17.4 12.2 67 3.4 SW 9 17 5 9 1025.8 1025.8 0.0
22/10:00am 17.4 16.3 12.1 71 2.9 SW 9 17 5 9 1026.0 1026.0 0.0
22/09:30am 16.4 15.2 11.6 73 2.6 SW 9 15 5 8 1026.1 1026.1 0.0
22/09:00am 14.9 13.5 10.9 77 2.1 SW 9 20 5 11 1026.2 1026.2 0.2
22/08:30am 14.1 12.6 10.7 80 1.8 WSW 9 15 5 8 1026.0 1026.0 0.2
22/08:00am 13.4 11.9 10.4 82 1.6 WSW 9 17 5 9 1025.7 1025.7 0.2
22/07:30am 12.6 11.0 10.1 85 1.3 WSW 9 13 5 7 1025.2 1025.2 0.2
22/07:00am 12.2 10.5 9.9 86 1.2 SW 9 13 5 7 1025.1 1025.1 0.2
22/06:30am 12.3 10.6 9.9 85 1.2 WSW 9 13 5 7 1025.0 1025.0 0.2
22/06:00am 12.6 10.9 10.0 84 1.3 WSW 9 13 5 7 1024.5 1024.5 0.2
22/05:30am 12.6 11.3 10.1 85 1.3 SW 7 13 4 7 1024.4 1024.4 0.2
22/05:00am 13.1 11.5 10.3 83 1.4 WSW 9 15 5 8 1024.1 1024.1 0.2
22/04:30am 13.5 12.1 10.9 84 1.4 WSW 9 15 5 8 1023.9 1023.9 0.2
22/04:00am 13.7 12.2 10.7 82 1.6 W 9 13 5 7 1023.9 1023.9 0.2
22/03:30am 14.2 13.1 10.8 80 1.8 WSW 7 11 4 6 1023.7 1023.7 0.2
22/03:00am 14.2 13.1 10.8 80 1.8 SW 7 11 4 6 1023.8 1023.8 0.2
22/02:30am 14.1 13.1 10.9 81 1.7 WSW 7 11 4 6 1023.9 1023.9 0.2
22/02:00am 14.1 13.1 11.1 82 1.6 WSW 7 11 4 6 1024.1 1024.1 0.2
22/01:30am 14.2 12.8 10.8 80 1.8 SW 9 15 5 8 1024.0 1024.0 0.2
22/01:00am 14.4 13.0 11.0 80 1.8 SW 9 15 5 8 1024.2 1024.2 0.2
22/12:30am 14.8 13.6 11.6 81 1.7 SW 9 15 5 8 1024.3 1024.3 0.2
22/12:00am 14.7 13.5 11.5 81 1.7 SW 9 13 5 7 1024.4 1024.4 0.2
 
Date/Time
EST
Temp
°C
App
Temp
°C
Dew
Point
°C
Rel
Hum
%
Delta-T
°C
Wind Press
QNH
hPa
Press
MSL
hPa
Rain since
9am
mm
Dir  Spd
km/h
Gust
km/h
Spd
kts
Gust
kts
21/11:30pm 15.4 13.4 11.6 78 2.0 SW 13 19 7 10 1024.7 1024.7 0.2
21/11:00pm 15.9 14.0 11.7 76 2.3 SW 13 20 7 11 1024.8 1024.8 0.2
21/10:30pm 16.1 14.7 12.1 77 2.2 SW 11 20 6 11 1024.8 1024.8 0.2
21/10:00pm 16.9 15.1 12.2 74 2.6 SSW 13 20 7 11 1024.8 1024.8 0.2
21/09:30pm 17.3 15.3 12.6 74 2.6 SSW 15 24 8 13 1024.8 1024.8 0.2
21/09:00pm 17.2 15.1 12.5 74 2.6 SSW 15 26 8 14 1024.6 1024.6 0.2
21/08:30pm 17.2 15.2 12.7 75 2.5 SSW 15 22 8 12 1024.4 1024.4 0.2
21/08:00pm 17.6 15.7 12.9 74 2.6 SSW 15 24 8 13 1024.3 1024.3 0.2
21/07:30pm 17.3 16.3 13.4 78 2.2 SSW 11 15 6 8 1024.2 1024.2 0.2
21/07:00pm 17.4 16.7 13.1 76 2.4 SSW 9 19 5 10 1023.9 1023.9 0.2
21/06:30pm 17.5 16.0 13.0 75 2.5 SSW 13 19 7 10 1023.6 1023.6 0.2
21/06:00pm 17.2 16.0 12.9 76 2.4 SSW 11 17 6 9 1023.3 1023.3 0.2
21/05:30pm 17.3 16.1 12.8 75 2.5 SSW 11 17 6 9 1023.0 1023.0 0.2
21/05:00pm 17.5 16.3 12.8 74 2.6 SSW 11 19 6 10 1022.5 1022.5 0.2
21/04:30pm 18.1 15.4 12.8 71 3.0 S 19 30 10 16 1022.3 1022.3 0.2
21/04:00pm 18.8 16.0 12.5 67 3.5 S 19 28 10 15 1022.3 1022.3 0.2
21/03:30pm 19.3 16.6 12.8 66 3.7 SSE 19 30 10 16 1022.2 1022.2 0.2
21/03:00pm 19.5 16.8 12.8 65 3.8 S 19 30 10 16 1022.2 1022.2 0.2
21/02:30pm 20.3 17.9 13.7 66 3.8 SSE 19 32 10 17 1022.1 1022.1 0.2
21/02:00pm 20.3 17.4 13.0 63 4.1 SSE 20 35 11 19 1022.0 1022.0 0.2
21/01:30pm 19.9 17.1 13.1 65 3.9 SSE 20 32 11 17 1022.0 1022.0 0.2
21/01:00pm 19.9 17.5 12.7 63 4.0 S 17 26 9 14 1022.0 1022.0 0.2
21/12:30pm 19.2 18.0 12.7 66 3.7 SSW 11 15 6 8 1022.2 1022.2 0.2
21/12:00pm 18.9 17.9 12.4 66 3.6 SW 9 17 5 9 1022.6 1022.6 0.2
21/11:30am 18.8 17.3 13.2 70 3.2 SSW 13 20 7 11 1022.8 1022.8 0.2
21/11:00am 18.0 17.1 12.7 71 2.9 SW 9 17 5 9 1023.2 1023.2 0.0
21/10:30am 16.9 15.8 11.8 72 2.8 WSW 9 17 5 9 1023.4 1023.4 0.0
21/10:00am 16.1 14.9 11.5 74 2.5 SW 9 19 5 10 1023.5 1023.5 0.0
21/09:30am 15.6 13.8 11.0 74 2.5 SW 11 20 6 11 1023.4 1023.4 0.0
21/09:00am 15.1 13.6 10.5 74 2.4 WSW 9 20 5 11 1023.2 1023.2 -
21/08:30am 13.7 11.6 9.7 77 2.1 WSW 11 20 6 11 1022.8 1022.8 -
21/08:00am 12.9 11.1 9.5 80 1.7 SW 9 19 5 10 1022.5 1022.5 -
21/07:30am 12.1 10.0 9.7 85 1.2 WSW 11 17 6 9 1022.4 1022.4 -
21/07:00am 11.7 9.5 9.4 86 1.2 SW 11 19 6 10 1022.3 1022.3 -
21/06:30am 11.8 9.6 9.5 86 1.2 SW 11 20 6 11 1022.2 1022.2 -
21/06:00am 11.9 10.2 9.8 87 1.1 SW 9 17 5 9 1021.9 1021.9 -
21/05:30am 11.8 9.7 9.7 87 1.1 WSW 11 17 6 9 1021.5 1021.4 -
21/05:00am 11.7 9.6 9.8 88 1.0 WSW 11 17 6 9 1021.5 1021.4 -
21/04:30am 11.9 9.9 10.1 89 0.9 WSW 11 17 6 9 1021.3 1021.2 -
21/04:00am 12.4 10.9 10.5 88 1.0 WSW 9 17 5 9 1021.3 1021.2 -
21/03:30am 12.6 11.1 10.7 88 1.0 WSW 9 15 5 8 1021.4 1021.3 -
21/03:00am 13.2 11.5 11.1 87 1.1 WSW 11 19 6 10 1021.7 1021.7 0.0
21/02:30am 13.7 12.4 11.2 85 1.3 SW 9 13 5 7 1021.9 1021.9 -
21/02:00am 14.3 13.1 11.6 84 1.4 SW 9 15 5 8 1022.1 1022.1 -
21/01:30am 14.5 13.0 11.8 84 1.5 SW 11 19 6 10 1022.2 1022.2 -
21/01:00am 14.6 13.5 11.9 84 1.5 SW 9 17 5 9 1022.4 1022.4 -
21/12:30am 14.7 12.8 11.8 83 1.6 SW 13 24 7 13 1022.4 1022.4 -
21/12:00am 14.5 13.0 12.0 85 1.3 SW 11 19 6 10 1022.3 1022.3 -
 
Date/Time
EST
Temp
°C
App
Temp
°C
Dew
Point
°C
Rel
Hum
%
Delta-T
°C
Wind Press
QNH
hPa
Press
MSL
hPa
Rain since
9am
mm
Dir  Spd
km/h
Gust
km/h
Spd
kts
Gust
kts
20/11:30pm 14.8 13.3 11.9 83 1.6 SW 11 20 6 11 1022.6 1022.6 -
20/11:00pm 15.0 13.9 12.1 83 1.6 SW 9 19 5 10 1022.8 1022.8 -
20/10:30pm 15.2 14.3 12.5 84 1.5 SSW 9 15 5 8 1023.0 1023.0 -
20/10:00pm 15.5 14.5 12.4 82 1.7 WSW 9 15 5 8 1023.2 1023.2 -
20/09:30pm 15.4 14.8 12.2 81 1.7 SW 7 13 4 7 1023.4 1023.4 -
20/09:00pm 15.5 14.5 12.3 81 1.7 SW 9 15 5 8 1023.4 1023.4 -
20/08:30pm 15.7 14.7 12.3 80 1.9 SW 9 13 5 7 1023.4 1023.4 -
20/08:00pm 16.0 15.1 12.7 81 1.8 SW 9 15 5 8 1023.2 1023.2 -
20/07:30pm 16.4 15.1 12.6 78 2.1 SSW 11 15 6 8 1022.9 1022.9 -
20/07:00pm 17.2 14.7 12.3 73 2.7 SSW 17 28 9 15 1022.7 1022.7 -
20/06:30pm 17.4 15.3 12.5 73 2.7 SSW 15 22 8 12 1022.5 1022.5 -
20/06:00pm 17.6 15.2 12.5 72 2.8 SSW 17 26 9 14 1022.2 1022.2 -
20/05:30pm 17.8 15.1 12.9 73 2.7 SSW 19 30 10 16 1022.1 1022.1 -
20/05:00pm 17.7 14.9 13.2 75 2.5 S 20 30 11 16 1021.8 1021.8 -
20/04:30pm 17.4 15.5 14.1 81 1.9 SSW 17 28 9 15 1021.8 1021.8 -
20/04:00pm 18.4 - 15.8 85 1.5 - - - - - - - -
20/03:30pm 18.1 14.4 16.1 88 1.2 SSE 30 46 16 25 1021.7 1021.7 1.6
20/03:00pm 18.6 15.5 15.7 83 1.7 SSE 26 43 14 23 1021.7 1021.7 1.6
20/02:30pm 17.8 15.2 15.8 88 1.2 S 24 37 13 20 1021.5 1021.4 1.6
20/02:00pm 16.9 14.6 16.6 98 0.2 S 24 37 13 20 1021.6 1021.6 1.6
20/01:30pm 16.8 14.1 16.5 98 0.2 S 26 39 14 21 1021.9 1021.9 1.6
20/01:00pm 16.4 13.9 16.1 98 0.2 S 24 35 13 19 1022.1 1022.1 1.2
20/12:30pm 16.2 14.0 15.9 98 0.2 S 22 33 12 18 1022.6 1022.6 1.0
20/12:00pm 17.0 16.0 16.7 98 0.2 SSW 17 26 9 14 1022.7 1022.7 0.4
20/11:30am 16.5 13.6 16.2 98 0.2 S 26 43 14 23 1023.2 1023.2 0.2
20/11:00am 17.2 14.6 15.9 92 0.8 S 24 37 13 20 1023.5 1023.5 0.0
20/10:40am 17.4 14.0 15.9 91 0.9 S 28 46 15 25 1023.5 1023.5 0.0
20/10:30am 17.7 15.7 16.4 92 0.8 S 22 37 12 20 1023.5 1023.5 0.0
20/10:00am 17.0 14.7 16.7 98 0.2 S 24 46 13 25 1023.7 1023.7 0.0
20/09:30am 16.1 13.5 15.8 98 0.2 S 24 33 13 18 1023.8 1023.8 0.0
20/09:00am 16.0 13.3 15.7 98 0.2 SSW 24 35 13 19 1023.5 1023.5 14.4
20/08:30am 15.7 13.9 15.4 98 0.2 SSW 19 35 10 19 1023.6 1023.6 14.4
20/08:00am 15.6 13.2 15.3 98 0.2 S 22 35 12 19 1023.7 1023.7 14.2
20/07:30am 15.3 12.7 15.0 98 0.2 S 22 32 12 17 1023.5 1023.5 13.8
20/07:00am 15.5 13.0 15.2 98 0.2 SSW 22 32 12 17 1023.2 1023.2 13.6

Other Formats:

Comma delimited format used in spreadsheet applications
http://www.bom.gov.au/fwo/IDN60801/IDN60801.94589.axf

JavaScript Object Notation format (JSON) in row-major order
http://www.bom.gov.au/fwo/IDN60801/IDN60801.94589.json